Accueil
METAR-TAF:

METAR-TAF

Aéroports :

Aéroport du Gloucestershire

Gloucester, Angleterre

latitude: 51-54N, longitude: 002-10W, altitude: 29 m

Observation

Le bulletin a été fait il y a 26 minutes, à 16:50 UTC
Vent 9 kt de nord-est
Température 6°C
Humidité 52%
Pression 1033 hPa
Visibilité 10 km ou plus
pas de nuages en-dessous de 1500 mètres et pas de cumulonimbus.

METAR: EGBJ 051650Z 05009KT CAVOK 06/M03 Q1033

Heure: 17:16 (17:16 UTC)

Prévision

Le bulletin a été fait il y a 3 heures et 18 minutes, à 13:58 UTC
Prévision valable du 05 à 15 UTC au 05 à 20 UTC
Vent 8 kt de est/nord-est
Visibilité 10 km ou plus
Nuages épars à une hauteur de 4500 ft

TAF: EGBJ 051358Z 0515/0520 06008KT 9999 SCT045

Observations et prévisions météorologiques de plus de 4000 aéroports (messages METAR et TAF).

Les stations disponibles sont représentées par des disques jaunes et rouges sur la carte.

Passer la souris dessus pour voir le nom de la station.

Cliquer dessus pour voir les observations et prévisions météorologiques.

Pour changer de carte: cliquez sur les boutons verts avec une croix noire pour zoomer, sur le bouton vert avec un tiret pour effectuer un zoom arrière, ou sur les flèches vertes pour les cartes adjacentes.


METAR-TAF: